sensor_id;sensor_type;location;lat;lon;timestamp;P1;durP1;ratioP1;P2;durP2;ratioP2
33593;SDS011;19920;52.242;20.940;2022-10-16T00:00:31;16.92;;;11.45;;
33593;SDS011;19920;52.242;20.940;2022-10-16T00:02:57;16.92;;;11.35;;
33593;SDS011;19920;52.242;20.940;2022-10-16T00:05:23;15.13;;;11.05;;
33593;SDS011;19920;52.242;20.940;2022-10-16T00:07:48;17.45;;;11.63;;
33593;SDS011;19920;52.242;20.940;2022-10-16T00:10:14;14.85;;;11.20;;
33593;SDS011;19920;52.242;20.940;2022-10-16T00:12:40;17.55;;;11.15;;
33593;SDS011;19920;52.242;20.940;2022-10-16T00:15:06;14.32;;;10.25;;
33593;SDS011;19920;52.242;20.940;2022-10-16T00:17:32;15.73;;;11.43;;
33593;SDS011;19920;52.242;20.940;2022-10-16T00:19:57;12.65;;;10.20;;
33593;SDS011;19920;52.242;20.940;2022-10-16T00:22:23;17.55;;;10.95;;
33593;SDS011;19920;52.242;20.940;2022-10-16T00:24:49;16.25;;;10.35;;
33593;SDS011;19920;52.242;20.940;2022-10-16T00:27:15;16.27;;;10.57;;
33593;SDS011;19920;52.242;20.940;2022-10-16T00:29:41;14.77;;;10.93;;
33593;SDS011;19920;52.242;20.940;2022-10-16T00:32:07;17.40;;;10.85;;
33593;SDS011;19920;52.242;20.940;2022-10-16T00:34:33;15.70;;;10.85;;
33593;SDS011;19920;52.242;20.940;2022-10-16T00:36:59;16.38;;;11.18;;
33593;SDS011;19920;52.242;20.940;2022-10-16T00:39:24;14.63;;;10.88;;
33593;SDS011;19920;52.242;20.940;2022-10-16T00:41:50;16.98;;;10.55;;
33593;SDS011;19920;52.242;20.940;2022-10-16T00:47:39;18.08;;;11.27;;
33593;SDS011;19920;52.242;20.940;2022-10-16T00:50:16;15.85;;;11.45;;
33593;SDS011;19920;52.242;20.940;2022-10-16T00:52:49;18.35;;;11.52;;
33593;SDS011;19920;52.242;20.940;2022-10-16T00:55:16;18.95;;;13.20;;
33593;SDS011;19920;52.242;20.940;2022-10-16T00:57:43;19.65;;;13.52;;
33593;SDS011;19920;52.242;20.940;2022-10-16T01:00:11;18.52;;;13.82;;
33593;SDS011;19920;52.242;20.940;2022-10-16T01:02:39;20.88;;;13.55;;
33593;SDS011;19920;52.242;20.940;2022-10-16T01:05:05;19.23;;;14.00;;
33593;SDS011;19920;52.242;20.940;2022-10-16T01:07:45;19.70;;;13.68;;
33593;SDS011;19920;52.242;20.940;2022-10-16T01:18:39;18.15;;;13.38;;
33593;SDS011;19920;52.242;20.940;2022-10-16T01:21:13;20.33;;;13.05;;
33593;SDS011;19920;52.242;20.940;2022-10-16T01:29:27;16.83;;;12.88;;
33593;SDS011;19920;52.242;20.940;2022-10-16T01:32:00;20.40;;;13.05;;
33593;SDS011;19920;52.242;20.940;2022-10-16T01:34:33;17.10;;;13.32;;
33593;SDS011;19920;52.242;20.940;2022-10-16T01:37:07;22.77;;;13.95;;
33593;SDS011;19920;52.242;20.940;2022-10-16T01:39:38;22.48;;;14.60;;
33593;SDS011;19920;52.242;20.940;2022-10-16T01:42:21;18.45;;;13.60;;
33593;SDS011;19920;52.242;20.940;2022-10-16T01:44:49;19.45;;;13.52;;
33593;SDS011;19920;52.242;20.940;2022-10-16T01:47:18;21.85;;;15.52;;
33593;SDS011;19920;52.242;20.940;2022-10-16T01:49:47;24.20;;;14.48;;
33593;SDS011;19920;52.242;20.940;2022-10-16T01:52:15;20.20;;;14.23;;
33593;SDS011;19920;52.242;20.940;2022-10-16T01:57:12;20.70;;;14.93;;
33593;SDS011;19920;52.242;20.940;2022-10-16T01:59:42;21.50;;;14.98;;
33593;SDS011;19920;52.242;20.940;2022-10-16T02:02:11;20.10;;;14.90;;
33593;SDS011;19920;52.242;20.940;2022-10-16T02:07:12;20.90;;;14.75;;
33593;SDS011;19920;52.242;20.940;2022-10-16T02:09:39;20.83;;;15.40;;
33593;SDS011;19920;52.242;20.940;2022-10-16T02:12:48;23.15;;;15.50;;
33593;SDS011;19920;52.242;20.940;2022-10-16T02:14:56;22.27;;;15.35;;
33593;SDS011;19920;52.242;20.940;2022-10-16T02:17:22;21.90;;;15.20;;
33593;SDS011;19920;52.242;20.940;2022-10-16T02:19:49;19.27;;;14.13;;
33593;SDS011;19920;52.242;20.940;2022-10-16T02:22:36;23.48;;;14.85;;
33593;SDS011;19920;52.242;20.940;2022-10-16T02:25:19;22.25;;;15.27;;
33593;SDS011;19920;52.242;20.940;2022-10-16T02:33:14;23.88;;;15.55;;
33593;SDS011;19920;52.242;20.940;2022-10-16T02:35:41;23.48;;;15.05;;
33593;SDS011;19920;52.242;20.940;2022-10-16T02:38:08;21.98;;;15.70;;
33593;SDS011;19920;52.242;20.940;2022-10-16T02:40:35;22.48;;;15.68;;
33593;SDS011;19920;52.242;20.940;2022-10-16T02:43:02;23.50;;;15.30;;
33593;SDS011;19920;52.242;20.940;2022-10-16T02:45:29;23.13;;;16.20;;
33593;SDS011;19920;52.242;20.940;2022-10-16T02:47:55;25.00;;;16.35;;
33593;SDS011;19920;52.242;20.940;2022-10-16T02:50:20;26.42;;;15.95;;
33593;SDS011;19920;52.242;20.940;2022-10-16T02:52:47;23.13;;;15.00;;
33593;SDS011;19920;52.242;20.940;2022-10-16T02:55:13;23.13;;;15.32;;
33593;SDS011;19920;52.242;20.940;2022-10-16T02:57:38;21.63;;;15.73;;
33593;SDS011;19920;52.242;20.940;2022-10-16T03:00:05;23.77;;;15.82;;
33593;SDS011;19920;52.242;20.940;2022-10-16T03:02:33;23.70;;;16.30;;
33593;SDS011;19920;52.242;20.940;2022-10-16T03:04:58;21.20;;;15.25;;
33593;SDS011;19920;52.242;20.940;2022-10-16T03:07:24;24.52;;;15.82;;
33593;SDS011;19920;52.242;20.940;2022-10-16T03:09:49;22.95;;;16.15;;
33593;SDS011;19920;52.242;20.940;2022-10-16T03:12:15;25.05;;;16.27;;
33593;SDS011;19920;52.242;20.940;2022-10-16T03:14:41;25.30;;;16.48;;
33593;SDS011;19920;52.242;20.940;2022-10-16T03:17:06;21.63;;;16.13;;
33593;SDS011;19920;52.242;20.940;2022-10-16T03:19:32;24.85;;;15.63;;
33593;SDS011;19920;52.242;20.940;2022-10-16T03:21:58;24.40;;;15.80;;
33593;SDS011;19920;52.242;20.940;2022-10-16T03:24:23;19.75;;;15.20;;
33593;SDS011;19920;52.242;20.940;2022-10-16T03:26:49;22.42;;;15.75;;
33593;SDS011;19920;52.242;20.940;2022-10-16T03:29:14;24.52;;;15.95;;
33593;SDS011;19920;52.242;20.940;2022-10-16T03:31:40;21.48;;;15.50;;
33593;SDS011;19920;52.242;20.940;2022-10-16T03:34:06;20.83;;;15.38;;
33593;SDS011;19920;52.242;20.940;2022-10-16T03:36:32;19.85;;;15.15;;
33593;SDS011;19920;52.242;20.940;2022-10-16T03:38:57;22.85;;;15.63;;
33593;SDS011;19920;52.242;20.940;2022-10-16T03:41:23;20.80;;;14.80;;
33593;SDS011;19920;52.242;20.940;2022-10-16T03:43:49;20.13;;;14.77;;
33593;SDS011;19920;52.242;20.940;2022-10-16T03:46:14;23.00;;;14.75;;
33593;SDS011;19920;52.242;20.940;2022-10-16T03:48:40;22.27;;;15.73;;
33593;SDS011;19920;52.242;20.940;2022-10-16T03:51:06;20.27;;;14.23;;
33593;SDS011;19920;52.242;20.940;2022-10-16T03:53:31;21.38;;;14.93;;
33593;SDS011;19920;52.242;20.940;2022-10-16T03:55:57;21.98;;;15.15;;
33593;SDS011;19920;52.242;20.940;2022-10-16T03:58:23;20.85;;;15.10;;
33593;SDS011;19920;52.242;20.940;2022-10-16T04:00:49;19.80;;;15.05;;
33593;SDS011;19920;52.242;20.940;2022-10-16T04:03:14;26.83;;;15.25;;
33593;SDS011;19920;52.242;20.940;2022-10-16T04:05:40;21.42;;;14.90;;
33593;SDS011;19920;52.242;20.940;2022-10-16T04:08:06;23.38;;;15.02;;
33593;SDS011;19920;52.242;20.940;2022-10-16T04:10:32;22.20;;;15.57;;
33593;SDS011;19920;52.242;20.940;2022-10-16T04:12:57;27.30;;;15.25;;
33593;SDS011;19920;52.242;20.940;2022-10-16T04:15:23;20.08;;;14.88;;
33593;SDS011;19920;52.242;20.940;2022-10-16T04:17:49;20.75;;;15.27;;
33593;SDS011;19920;52.242;20.940;2022-10-16T04:20:15;21.60;;;15.02;;
33593;SDS011;19920;52.242;20.940;2022-10-16T04:22:41;23.63;;;15.57;;
33593;SDS011;19920;52.242;20.940;2022-10-16T04:25:07;21.40;;;15.25;;
33593;SDS011;19920;52.242;20.940;2022-10-16T04:27:33;20.40;;;15.23;;
33593;SDS011;19920;52.242;20.940;2022-10-16T04:29:59;20.73;;;14.38;;
33593;SDS011;19920;52.242;20.940;2022-10-16T04:32:25;22.67;;;15.55;;
33593;SDS011;19920;52.242;20.940;2022-10-16T04:34:51;23.00;;;14.88;;
33593;SDS011;19920;52.242;20.940;2022-10-16T04:37:16;21.77;;;15.77;;
33593;SDS011;19920;52.242;20.940;2022-10-16T04:39:42;23.50;;;16.05;;
33593;SDS011;19920;52.242;20.940;2022-10-16T04:42:08;25.30;;;15.13;;
33593;SDS011;19920;52.242;20.940;2022-10-16T04:44:34;23.45;;;14.95;;
33593;SDS011;19920;52.242;20.940;2022-10-16T04:47:00;21.90;;;15.57;;
33593;SDS011;19920;52.242;20.940;2022-10-16T04:49:25;21.65;;;15.20;;
33593;SDS011;19920;52.242;20.940;2022-10-16T04:51:51;22.45;;;15.90;;
33593;SDS011;19920;52.242;20.940;2022-10-16T04:54:17;21.95;;;15.13;;
33593;SDS011;19920;52.242;20.940;2022-10-16T04:56:42;23.10;;;15.38;;
33593;SDS011;19920;52.242;20.940;2022-10-16T04:59:12;22.80;;;15.85;;
33593;SDS011;19920;52.242;20.940;2022-10-16T05:01:39;22.60;;;15.45;;
33593;SDS011;19920;52.242;20.940;2022-10-16T05:04:05;23.00;;;15.45;;
33593;SDS011;19920;52.242;20.940;2022-10-16T05:06:30;24.20;;;15.60;;
33593;SDS011;19920;52.242;20.940;2022-10-16T05:08:56;21.00;;;15.30;;
33593;SDS011;19920;52.242;20.940;2022-10-16T05:11:22;25.00;;;16.88;;
33593;SDS011;19920;52.242;20.940;2022-10-16T05:13:47;21.88;;;15.77;;
33593;SDS011;19920;52.242;20.940;2022-10-16T05:16:13;24.02;;;16.00;;
33593;SDS011;19920;52.242;20.940;2022-10-16T05:18:39;22.40;;;15.95;;
33593;SDS011;19920;52.242;20.940;2022-10-16T05:21:05;22.95;;;15.93;;
33593;SDS011;19920;52.242;20.940;2022-10-16T05:23:31;22.83;;;15.80;;
33593;SDS011;19920;52.242;20.940;2022-10-16T05:25:57;22.67;;;15.90;;
33593;SDS011;19920;52.242;20.940;2022-10-16T05:28:27;22.70;;;16.10;;
33593;SDS011;19920;52.242;20.940;2022-10-16T05:30:54;26.85;;;16.98;;
33593;SDS011;19920;52.242;20.940;2022-10-16T05:33:20;23.35;;;16.17;;
33593;SDS011;19920;52.242;20.940;2022-10-16T05:35:47;26.58;;;17.02;;
33593;SDS011;19920;52.242;20.940;2022-10-16T05:38:12;26.77;;;17.15;;
33593;SDS011;19920;52.242;20.940;2022-10-16T05:40:38;24.35;;;16.25;;
33593;SDS011;19920;52.242;20.940;2022-10-16T05:43:04;25.55;;;16.83;;
33593;SDS011;19920;52.242;20.940;2022-10-16T05:45:30;27.20;;;16.95;;
33593;SDS011;19920;52.242;20.940;2022-10-16T05:47:55;21.70;;;15.63;;
33593;SDS011;19920;52.242;20.940;2022-10-16T05:50:21;26.65;;;17.17;;
33593;SDS011;19920;52.242;20.940;2022-10-16T05:52:47;22.75;;;16.42;;
33593;SDS011;19920;52.242;20.940;2022-10-16T05:55:12;24.88;;;17.20;;
33593;SDS011;19920;52.242;20.940;2022-10-16T05:57:38;23.80;;;16.52;;
33593;SDS011;19920;52.242;20.940;2022-10-16T06:00:04;25.73;;;16.55;;
33593;SDS011;19920;52.242;20.940;2022-10-16T06:02:30;23.70;;;16.02;;
33593;SDS011;19920;52.242;20.940;2022-10-16T06:04:55;22.38;;;15.68;;
33593;SDS011;19920;52.242;20.940;2022-10-16T06:07:21;23.17;;;15.57;;
33593;SDS011;19920;52.242;20.940;2022-10-16T06:09:52;23.50;;;16.45;;
33593;SDS011;19920;52.242;20.940;2022-10-16T06:12:18;24.38;;;16.45;;
33593;SDS011;19920;52.242;20.940;2022-10-16T06:14:44;25.02;;;16.38;;
33593;SDS011;19920;52.242;20.940;2022-10-16T06:17:12;21.52;;;15.68;;
33593;SDS011;19920;52.242;20.940;2022-10-16T06:19:38;24.45;;;16.40;;
33593;SDS011;19920;52.242;20.940;2022-10-16T06:22:04;22.50;;;15.50;;
33593;SDS011;19920;52.242;20.940;2022-10-16T06:24:30;23.27;;;16.13;;
33593;SDS011;19920;52.242;20.940;2022-10-16T06:26:56;24.48;;;15.77;;
33593;SDS011;19920;52.242;20.940;2022-10-16T06:29:21;21.33;;;15.35;;
33593;SDS011;19920;52.242;20.940;2022-10-16T06:31:47;24.55;;;16.40;;
33593;SDS011;19920;52.242;20.940;2022-10-16T06:34:13;23.50;;;15.35;;
33593;SDS011;19920;52.242;20.940;2022-10-16T06:36:38;22.92;;;15.93;;
33593;SDS011;19920;52.242;20.940;2022-10-16T06:39:04;23.58;;;16.02;;
33593;SDS011;19920;52.242;20.940;2022-10-16T06:41:32;20.65;;;14.80;;
33593;SDS011;19920;52.242;20.940;2022-10-16T06:43:58;25.05;;;15.48;;
33593;SDS011;19920;52.242;20.940;2022-10-16T06:46:25;18.70;;;14.45;;
33593;SDS011;19920;52.242;20.940;2022-10-16T06:48:52;21.90;;;15.50;;
33593;SDS011;19920;52.242;20.940;2022-10-16T06:51:21;21.20;;;15.10;;
33593;SDS011;19920;52.242;20.940;2022-10-16T06:53:50;18.58;;;14.65;;
33593;SDS011;19920;52.242;20.940;2022-10-16T06:56:18;21.55;;;15.60;;
33593;SDS011;19920;52.242;20.940;2022-10-16T06:58:44;21.20;;;13.93;;
33593;SDS011;19920;52.242;20.940;2022-10-16T07:01:11;21.27;;;15.25;;
33593;SDS011;19920;52.242;20.940;2022-10-16T07:03:41;23.67;;;15.23;;
33593;SDS011;19920;52.242;20.940;2022-10-16T07:06:09;20.50;;;14.57;;
33593;SDS011;19920;52.242;20.940;2022-10-16T07:08:36;18.35;;;13.45;;
33593;SDS011;19920;52.242;20.940;2022-10-16T07:11:10;20.50;;;14.18;;
33593;SDS011;19920;52.242;20.940;2022-10-16T07:13:38;20.10;;;14.25;;
33593;SDS011;19920;52.242;20.940;2022-10-16T07:16:08;21.10;;;13.85;;
33593;SDS011;19920;52.242;20.940;2022-10-16T07:18:35;20.88;;;13.90;;
33593;SDS011;19920;52.242;20.940;2022-10-16T07:21:09;18.92;;;14.23;;
33593;SDS011;19920;52.242;20.940;2022-10-16T07:23:36;19.23;;;14.52;;
33593;SDS011;19920;52.242;20.940;2022-10-16T07:26:02;19.73;;;14.38;;
33593;SDS011;19920;52.242;20.940;2022-10-16T07:28:29;21.33;;;13.85;;
33593;SDS011;19920;52.242;20.940;2022-10-16T07:31:00;20.65;;;14.30;;
33593;SDS011;19920;52.242;20.940;2022-10-16T07:33:29;23.10;;;14.13;;
33593;SDS011;19920;52.242;20.940;2022-10-16T07:35:55;19.88;;;15.07;;
33593;SDS011;19920;52.242;20.940;2022-10-16T07:38:21;18.25;;;14.10;;
33593;SDS011;19920;52.242;20.940;2022-10-16T07:40:47;22.65;;;13.98;;
33593;SDS011;19920;52.242;20.940;2022-10-16T07:43:13;20.05;;;14.38;;
33593;SDS011;19920;52.242;20.940;2022-10-16T07:45:48;19.25;;;13.98;;
33593;SDS011;19920;52.242;20.940;2022-10-16T07:48:15;20.25;;;14.13;;
33593;SDS011;19920;52.242;20.940;2022-10-16T07:50:42;21.33;;;14.18;;
33593;SDS011;19920;52.242;20.940;2022-10-16T07:53:09;20.17;;;13.65;;
33593;SDS011;19920;52.242;20.940;2022-10-16T07:55:35;20.30;;;14.60;;
33593;SDS011;19920;52.242;20.940;2022-10-16T07:58:00;18.95;;;13.60;;
33593;SDS011;19920;52.242;20.940;2022-10-16T08:00:26;18.95;;;13.75;;
33593;SDS011;19920;52.242;20.940;2022-10-16T08:02:52;20.67;;;13.32;;
33593;SDS011;19920;52.242;20.940;2022-10-16T08:05:17;21.58;;;13.35;;
33593;SDS011;19920;52.242;20.940;2022-10-16T08:07:48;19.88;;;13.50;;
33593;SDS011;19920;52.242;20.940;2022-10-16T08:10:17;15.15;;;12.68;;
33593;SDS011;19920;52.242;20.940;2022-10-16T08:12:44;17.73;;;13.05;;
33593;SDS011;19920;52.242;20.940;2022-10-16T08:15:10;17.77;;;13.27;;
33593;SDS011;19920;52.242;20.940;2022-10-16T08:17:35;18.23;;;12.45;;
33593;SDS011;19920;52.242;20.940;2022-10-16T08:20:01;14.90;;;12.02;;
33593;SDS011;19920;52.242;20.940;2022-10-16T08:22:27;17.67;;;12.10;;
33593;SDS011;19920;52.242;20.940;2022-10-16T08:24:53;20.40;;;11.82;;
33593;SDS011;19920;52.242;20.940;2022-10-16T08:27:19;15.30;;;11.65;;
33593;SDS011;19920;52.242;20.940;2022-10-16T08:29:44;15.85;;;11.88;;
33593;SDS011;19920;52.242;20.940;2022-10-16T08:32:10;15.07;;;11.38;;
33593;SDS011;19920;52.242;20.940;2022-10-16T08:34:36;14.57;;;10.80;;
33593;SDS011;19920;52.242;20.940;2022-10-16T08:37:01;15.70;;;10.85;;
33593;SDS011;19920;52.242;20.940;2022-10-16T08:39:28;15.40;;;11.40;;
33593;SDS011;19920;52.242;20.940;2022-10-16T08:42:16;13.18;;;10.73;;
33593;SDS011;19920;52.242;20.940;2022-10-16T08:47:33;13.93;;;11.18;;
33593;SDS011;19920;52.242;20.940;2022-10-16T08:50:09;14.93;;;10.77;;
33593;SDS011;19920;52.242;20.940;2022-10-16T08:52:40;15.57;;;11.15;;
33593;SDS011;19920;52.242;20.940;2022-10-16T08:55:17;13.98;;;10.23;;
33593;SDS011;19920;52.242;20.940;2022-10-16T08:57:44;15.52;;;10.63;;
33593;SDS011;19920;52.242;20.940;2022-10-16T09:00:13;14.25;;;10.55;;
33593;SDS011;19920;52.242;20.940;2022-10-16T09:08:09;15.68;;;11.20;;
33593;SDS011;19920;52.242;20.940;2022-10-16T09:13:23;13.40;;;9.95;;
33593;SDS011;19920;52.242;20.940;2022-10-16T09:16:04;14.50;;;10.65;;
33593;SDS011;19920;52.242;20.940;2022-10-16T09:18:40;14.13;;;10.45;;
33593;SDS011;19920;52.242;20.940;2022-10-16T09:23:59;15.40;;;10.82;;
33593;SDS011;19920;52.242;20.940;2022-10-16T09:26:33;14.90;;;10.73;;
33593;SDS011;19920;52.242;20.940;2022-10-16T09:28:59;15.32;;;10.75;;
33593;SDS011;19920;52.242;20.940;2022-10-16T09:31:24;13.57;;;10.63;;
33593;SDS011;19920;52.242;20.940;2022-10-16T09:33:52;15.27;;;10.23;;
33593;SDS011;19920;52.242;20.940;2022-10-16T09:36:21;16.40;;;10.63;;
33593;SDS011;19920;52.242;20.940;2022-10-16T09:38:48;13.27;;;9.85;;
33593;SDS011;19920;52.242;20.940;2022-10-16T09:44:00;11.93;;;10.20;;
33593;SDS011;19920;52.242;20.940;2022-10-16T09:48:58;14.07;;;10.38;;
33593;SDS011;19920;52.242;20.940;2022-10-16T09:51:32;15.27;;;10.52;;
33593;SDS011;19920;52.242;20.940;2022-10-16T09:54:01;12.35;;;10.35;;
33593;SDS011;19920;52.242;20.940;2022-10-16T09:56:28;13.38;;;10.13;;
33593;SDS011;19920;52.242;20.940;2022-10-16T09:58:57;14.77;;;9.63;;
33593;SDS011;19920;52.242;20.940;2022-10-16T10:01:52;12.20;;;9.93;;
33593;SDS011;19920;52.242;20.940;2022-10-16T10:04:20;11.93;;;9.20;;
33593;SDS011;19920;52.242;20.940;2022-10-16T10:06:57;16.48;;;9.82;;
33593;SDS011;19920;52.242;20.940;2022-10-16T10:09:23;12.88;;;9.90;;
33593;SDS011;19920;52.242;20.940;2022-10-16T10:11:56;13.05;;;9.90;;
33593;SDS011;19920;52.242;20.940;2022-10-16T10:14:24;16.38;;;10.80;;
33593;SDS011;19920;52.242;20.940;2022-10-16T10:19:37;12.82;;;9.82;;
33593;SDS011;19920;52.242;20.940;2022-10-16T10:22:24;12.60;;;9.38;;
33593;SDS011;19920;52.242;20.940;2022-10-16T10:36:00;13.18;;;9.80;;
33593;SDS011;19920;52.242;20.940;2022-10-16T10:44:35;14.18;;;10.00;;
33593;SDS011;19920;52.242;20.940;2022-10-16T10:58:25;13.20;;;10.00;;
33593;SDS011;19920;52.242;20.940;2022-10-16T11:01:17;15.45;;;9.93;;
33593;SDS011;19920;52.242;20.940;2022-10-16T11:06:52;14.32;;;9.90;;
33593;SDS011;19920;52.242;20.940;2022-10-16T11:09:25;12.38;;;10.10;;
33593;SDS011;19920;52.242;20.940;2022-10-16T11:11:58;11.25;;;10.05;;
33593;SDS011;19920;52.242;20.940;2022-10-16T11:17:41;13.02;;;10.38;;
33593;SDS011;19920;52.242;20.940;2022-10-16T11:20:59;13.25;;;9.30;;
33593;SDS011;19920;52.242;20.940;2022-10-16T11:23:23;12.00;;;9.73;;
33593;SDS011;19920;52.242;20.940;2022-10-16T11:25:56;12.23;;;9.82;;
33593;SDS011;19920;52.242;20.940;2022-10-16T11:28:38;12.85;;;9.93;;
33593;SDS011;19920;52.242;20.940;2022-10-16T11:33:55;10.48;;;9.38;;
33593;SDS011;19920;52.242;20.940;2022-10-16T11:36:38;12.98;;;9.70;;
33593;SDS011;19920;52.242;20.940;2022-10-16T11:44:38;12.75;;;10.52;;
33593;SDS011;19920;52.242;20.940;2022-10-16T11:47:19;13.80;;;8.90;;
33593;SDS011;19920;52.242;20.940;2022-10-16T11:49:53;12.27;;;8.77;;
33593;SDS011;19920;52.242;20.940;2022-10-16T11:52:52;12.23;;;8.55;;
33593;SDS011;19920;52.242;20.940;2022-10-16T11:55:40;11.07;;;8.65;;
33593;SDS011;19920;52.242;20.940;2022-10-16T12:03:34;12.27;;;9.10;;
33593;SDS011;19920;52.242;20.940;2022-10-16T12:08:58;12.85;;;8.98;;
33593;SDS011;19920;52.242;20.940;2022-10-16T12:14:58;13.80;;;9.00;;
33593;SDS011;19920;52.242;20.940;2022-10-16T12:19:45;12.32;;;9.20;;
33593;SDS011;19920;52.242;20.940;2022-10-16T12:22:27;10.43;;;8.82;;
33593;SDS011;19920;52.242;20.940;2022-10-16T12:24:55;13.57;;;9.15;;
33593;SDS011;19920;52.242;20.940;2022-10-16T12:27:28;12.30;;;8.75;;
33593;SDS011;19920;52.242;20.940;2022-10-16T12:29:56;10.52;;;8.50;;
33593;SDS011;19920;52.242;20.940;2022-10-16T12:32:30;13.23;;;8.70;;
33593;SDS011;19920;52.242;20.940;2022-10-16T12:35:01;11.15;;;8.82;;
33593;SDS011;19920;52.242;20.940;2022-10-16T12:37:31;10.55;;;8.13;;
33593;SDS011;19920;52.242;20.940;2022-10-16T12:40:11;11.50;;;8.45;;
33593;SDS011;19920;52.242;20.940;2022-10-16T12:42:58;9.60;;;7.70;;
33593;SDS011;19920;52.242;20.940;2022-10-16T12:48:02;12.55;;;8.40;;
33593;SDS011;19920;52.242;20.940;2022-10-16T12:50:43;10.25;;;8.63;;
33593;SDS011;19920;52.242;20.940;2022-10-16T12:53:19;13.27;;;8.77;;
33593;SDS011;19920;52.242;20.940;2022-10-16T13:03:54;10.63;;;9.18;;
33593;SDS011;19920;52.242;20.940;2022-10-16T13:09:40;12.38;;;8.95;;
33593;SDS011;19920;52.242;20.940;2022-10-16T13:18:13;11.35;;;8.57;;
33593;SDS011;19920;52.242;20.940;2022-10-16T13:21:18;10.98;;;8.75;;
33593;SDS011;19920;52.242;20.940;2022-10-16T13:26:42;10.68;;;9.35;;
33593;SDS011;19920;52.242;20.940;2022-10-16T13:29:04;13.00;;;8.88;;
33593;SDS011;19920;52.242;20.940;2022-10-16T13:31:30;12.13;;;9.20;;
33593;SDS011;19920;52.242;20.940;2022-10-16T13:33:57;12.15;;;8.88;;
33593;SDS011;19920;52.242;20.940;2022-10-16T13:36:35;11.65;;;8.85;;
33593;SDS011;19920;52.242;20.940;2022-10-16T13:39:12;11.25;;;8.45;;
33593;SDS011;19920;52.242;20.940;2022-10-16T13:41:39;11.48;;;8.88;;
33593;SDS011;19920;52.242;20.940;2022-10-16T13:44:08;11.75;;;8.63;;
33593;SDS011;19920;52.242;20.940;2022-10-16T13:46:40;10.00;;;8.38;;
33593;SDS011;19920;52.242;20.940;2022-10-16T13:49:16;12.98;;;7.97;;
33593;SDS011;19920;52.242;20.940;2022-10-16T13:51:53;10.68;;;8.40;;
33593;SDS011;19920;52.242;20.940;2022-10-16T13:54:24;15.15;;;8.93;;
33593;SDS011;19920;52.242;20.940;2022-10-16T13:56:51;12.73;;;8.05;;
33593;SDS011;19920;52.242;20.940;2022-10-16T13:59:27;10.52;;;8.68;;
33593;SDS011;19920;52.242;20.940;2022-10-16T14:01:58;10.55;;;8.05;;
33593;SDS011;19920;52.242;20.940;2022-10-16T14:04:30;11.07;;;8.07;;
33593;SDS011;19920;52.242;20.940;2022-10-16T14:06:58;14.13;;;8.77;;
33593;SDS011;19920;52.242;20.940;2022-10-16T14:11:53;10.55;;;8.70;;
33593;SDS011;19920;52.242;20.940;2022-10-16T14:14:26;12.18;;;8.95;;
33593;SDS011;19920;52.242;20.940;2022-10-16T14:16:57;14.45;;;8.75;;
33593;SDS011;19920;52.242;20.940;2022-10-16T14:19:26;12.73;;;8.82;;
33593;SDS011;19920;52.242;20.940;2022-10-16T14:21:55;9.85;;;8.20;;
33593;SDS011;19920;52.242;20.940;2022-10-16T14:24:24;11.40;;;8.27;;
33593;SDS011;19920;52.242;20.940;2022-10-16T14:26:52;13.80;;;8.55;;
33593;SDS011;19920;52.242;20.940;2022-10-16T14:29:21;10.98;;;8.82;;
33593;SDS011;19920;52.242;20.940;2022-10-16T14:32:22;13.23;;;8.35;;
33593;SDS011;19920;52.242;20.940;2022-10-16T14:34:52;13.65;;;8.65;;
33593;SDS011;19920;52.242;20.940;2022-10-16T14:37:29;13.23;;;8.75;;
33593;SDS011;19920;52.242;20.940;2022-10-16T14:39:55;11.40;;;8.80;;
33593;SDS011;19920;52.242;20.940;2022-10-16T14:42:22;10.30;;;8.20;;
33593;SDS011;19920;52.242;20.940;2022-10-16T14:44:53;12.57;;;8.93;;
33593;SDS011;19920;52.242;20.940;2022-10-16T14:47:20;13.20;;;9.25;;
33593;SDS011;19920;52.242;20.940;2022-10-16T14:49:50;12.13;;;8.90;;
33593;SDS011;19920;52.242;20.940;2022-10-16T14:52:20;12.90;;;9.63;;
33593;SDS011;19920;52.242;20.940;2022-10-16T14:54:50;12.57;;;8.73;;
33593;SDS011;19920;52.242;20.940;2022-10-16T14:57:19;13.90;;;8.80;;
33593;SDS011;19920;52.242;20.940;2022-10-16T14:59:48;13.63;;;9.27;;
33593;SDS011;19920;52.242;20.940;2022-10-16T15:02:29;12.32;;;9.20;;
33593;SDS011;19920;52.242;20.940;2022-10-16T15:04:57;11.75;;;9.40;;
33593;SDS011;19920;52.242;20.940;2022-10-16T15:07:23;15.43;;;9.40;;
33593;SDS011;19920;52.242;20.940;2022-10-16T15:09:49;15.23;;;9.40;;
33593;SDS011;19920;52.242;20.940;2022-10-16T15:12:15;11.90;;;9.05;;
33593;SDS011;19920;52.242;20.940;2022-10-16T15:14:42;12.15;;;9.32;;
33593;SDS011;19920;52.242;20.940;2022-10-16T15:17:09;11.13;;;9.02;;
33593;SDS011;19920;52.242;20.940;2022-10-16T15:19:36;12.50;;;9.13;;
33593;SDS011;19920;52.242;20.940;2022-10-16T15:22:01;15.40;;;8.93;;
33593;SDS011;19920;52.242;20.940;2022-10-16T15:24:27;13.38;;;9.68;;
33593;SDS011;19920;52.242;20.940;2022-10-16T15:26:52;15.50;;;9.70;;
33593;SDS011;19920;52.242;20.940;2022-10-16T15:29:18;12.13;;;9.60;;
33593;SDS011;19920;52.242;20.940;2022-10-16T15:31:44;13.35;;;9.77;;
33593;SDS011;19920;52.242;20.940;2022-10-16T15:34:12;16.50;;;10.15;;
33593;SDS011;19920;52.242;20.940;2022-10-16T15:36:38;14.48;;;10.25;;
33593;SDS011;19920;52.242;20.940;2022-10-16T15:41:41;12.23;;;10.10;;
33593;SDS011;19920;52.242;20.940;2022-10-16T15:44:07;14.52;;;10.38;;
33593;SDS011;19920;52.242;20.940;2022-10-16T15:46:33;16.65;;;9.80;;
33593;SDS011;19920;52.242;20.940;2022-10-16T15:48:59;16.60;;;10.05;;
33593;SDS011;19920;52.242;20.940;2022-10-16T15:51:26;15.52;;;10.85;;
33593;SDS011;19920;52.242;20.940;2022-10-16T15:53:57;13.68;;;10.32;;
33593;SDS011;19920;52.242;20.940;2022-10-16T15:56:26;13.85;;;10.25;;
33593;SDS011;19920;52.242;20.940;2022-10-16T15:58:53;14.82;;;10.73;;
33593;SDS011;19920;52.242;20.940;2022-10-16T16:01:19;14.27;;;10.65;;
33593;SDS011;19920;52.242;20.940;2022-10-16T16:03:46;12.52;;;10.18;;
33593;SDS011;19920;52.242;20.940;2022-10-16T16:06:12;13.80;;;11.15;;
33593;SDS011;19920;52.242;20.940;2022-10-16T16:08:38;15.02;;;11.43;;
33593;SDS011;19920;52.242;20.940;2022-10-16T16:11:05;13.15;;;10.65;;
33593;SDS011;19920;52.242;20.940;2022-10-16T16:13:32;12.93;;;10.80;;
33593;SDS011;19920;52.242;20.940;2022-10-16T16:15:58;16.80;;;10.98;;
33593;SDS011;19920;52.242;20.940;2022-10-16T16:18:24;15.90;;;11.07;;
33593;SDS011;19920;52.242;20.940;2022-10-16T16:20:51;14.90;;;11.10;;
33593;SDS011;19920;52.242;20.940;2022-10-16T16:23:17;15.15;;;10.80;;
33593;SDS011;19920;52.242;20.940;2022-10-16T16:25:44;17.83;;;11.90;;
33593;SDS011;19920;52.242;20.940;2022-10-16T16:28:09;16.35;;;11.45;;
33593;SDS011;19920;52.242;20.940;2022-10-16T16:30:39;16.83;;;11.23;;
33593;SDS011;19920;52.242;20.940;2022-10-16T16:33:05;15.68;;;11.85;;
33593;SDS011;19920;52.242;20.940;2022-10-16T16:35:30;15.80;;;11.77;;
33593;SDS011;19920;52.242;20.940;2022-10-16T16:37:56;16.90;;;11.85;;